Time;durP1;ratioP1;P1;durP2;ratioP2;P2;SDS_P1;SDS_P2;PMS_P1;PMS_P2;Temp;Humidity;BMP_temperature;BMP_pressure;BME280_temperature;BME280_humidity;BME280_pressure;Samples;Min_cycle;Max_cycle;Signal;HPM_P1;HPM_P2
2021/09/12 00:02:23;;;;;;;1.07;0.30;;;16.90;99.90;;;;;;4970601;28;20176;-85
2021/09/12 00:04:49;;;;;;;0.20;0.20;;;16.90;99.90;;;;;;4959209;28;20553;-85
2021/09/12 00:07:14;;;;;;;0.40;0.40;;;16.90;99.90;;;;;;4950587;28;20203;-85
2021/09/12 00:09:40;;;;;;;0.87;0.60;;;16.90;99.90;;;;;;4967107;28;20537;-86
2021/09/12 00:12:06;;;;;;;0.30;0.13;;;16.90;99.90;;;;;;4966669;28;20701;-86
2021/09/12 00:14:32;;;;;;;0.40;0.33;;;16.90;99.90;;;;;;4951376;29;20554;-85
2021/09/12 00:16:58;;;;;;;0.30;0.30;;;17.00;99.90;;;;;;4953702;29;20186;-85
2021/09/12 00:19:24;;;;;;;0.20;0.20;;;17.00;99.90;;;;;;4952526;28;20339;-85
2021/09/12 00:21:51;;;;;;;0.77;0.37;;;17.00;99.90;;;;;;4967727;28;20231;-85
2021/09/12 00:24:16;;;;;;;0.30;0.30;;;17.10;99.90;;;;;;4950273;29;20188;-85
2021/09/12 00:26:42;;;;;;;0.30;0.30;;;17.10;99.90;;;;;;4956025;28;20207;-85
2021/09/12 00:29:07;;;;;;;0.10;0.10;;;17.20;99.90;;;;;;4952520;28;20226;-85
2021/09/12 00:31:33;;;;;;;0.20;0.20;;;17.20;99.90;;;;;;4945531;28;20673;-85
2021/09/12 00:33:59;;;;;;;0.37;0.37;;;17.20;99.90;;;;;;4968168;28;20211;-84
2021/09/12 00:36:24;;;;;;;0.20;0.20;;;17.30;99.90;;;;;;4971730;28;20189;-85
2021/09/12 00:38:50;;;;;;;0.40;0.40;;;17.30;99.90;;;;;;4942929;28;20181;-85
2021/09/12 00:41:16;;;;;;;0.40;0.40;;;17.30;99.90;;;;;;4970002;28;20228;-85
2021/09/12 00:43:42;;;;;;;0.10;0.10;;;17.30;99.90;;;;;;4951997;28;20189;-85
2021/09/12 00:46:07;;;;;;;0.30;0.30;;;17.00;99.90;;;;;;4966940;28;20723;-85
2021/09/12 00:48:37;;;;;;;0.43;0.20;;;16.90;99.90;;;;;;4950441;28;20208;-86
2021/09/12 00:51:03;;;;;;;0.43;0.43;;;16.70;99.90;;;;;;4946242;29;20228;-86
2021/09/12 00:53:34;;;;;;;0.33;0.33;;;16.80;99.90;;;;;;4954261;28;20208;-85
2021/09/12 00:56:01;;;;;;;0.20;0.20;;;16.40;99.90;;;;;;4956226;28;20177;-85
2021/09/12 00:58:29;;;;;;;0.20;0.20;;;16.40;99.90;;;;;;4970196;28;20176;-84
2021/09/12 01:00:55;;;;;;;0.13;0.13;;;16.20;99.90;;;;;;4947400;28;20291;-85
2021/09/12 01:03:21;;;;;;;3.00;0.30;;;16.30;99.90;;;;;;4966411;28;20630;-85
2021/09/12 01:05:47;;;;;;;0.27;0.27;;;16.40;99.90;;;;;;4947579;28;20680;-84
2021/09/12 01:08:12;;;;;;;0.57;0.20;;;16.40;99.90;;;;;;4946446;29;20189;-85
2021/09/12 01:10:40;;;;;;;0.30;0.30;;;16.40;99.90;;;;;;4956916;28;20215;-85
2021/09/12 01:13:05;;;;;;;0.23;0.23;;;16.40;99.90;;;;;;4960617;28;20180;-85
2021/09/12 01:15:31;;;;;;;0.20;0.20;;;16.40;99.90;;;;;;4970488;28;20564;-85
2021/09/12 01:17:57;;;;;;;0.20;0.20;;;16.50;99.90;;;;;;4970885;28;20263;-85
2021/09/12 01:20:23;;;;;;;0.30;0.30;;;16.60;99.90;;;;;;4957290;28;20219;-85
2021/09/12 01:22:50;;;;;;;1.20;0.30;;;16.60;99.90;;;;;;4950245;28;20198;-85
2021/09/12 01:25:16;;;;;;;0.37;0.37;;;16.80;99.90;;;;;;4957104;28;20283;-85
2021/09/12 01:27:42;;;;;;;0.20;0.20;;;16.90;99.90;;;;;;4965942;28;20229;-85
2021/09/12 01:30:10;;;;;;;0.53;0.53;;;17.00;99.90;;;;;;4968811;28;20208;-85
2021/09/12 01:32:35;;;;;;;0.27;0.27;;;17.10;99.90;;;;;;4954205;28;20185;-85
2021/09/12 01:35:02;;;;;;;0.10;0.10;;;17.20;99.90;;;;;;4948256;28;20272;-85
2021/09/12 01:37:28;;;;;;;0.10;0.10;;;17.30;99.90;;;;;;4953638;28;20184;-85
2021/09/12 01:39:53;;;;;;;0.30;0.20;;;17.40;99.90;;;;;;4968655;28;20220;-85
2021/09/12 01:42:19;;;;;;;0.50;0.30;;;17.40;99.90;;;;;;4952163;28;20192;-85
2021/09/12 01:44:46;;;;;;;0.30;0.30;;;17.40;99.90;;;;;;4946026;28;20191;-85
2021/09/12 01:47:12;;;;;;;0.20;0.20;;;17.40;99.90;;;;;;4948260;29;20204;-85
2021/09/12 01:49:37;;;;;;;0.30;0.30;;;17.40;99.90;;;;;;4988371;23;20227;-80
2021/09/12 01:52:04;;;;;;;0.20;0.20;;;17.40;99.90;;;;;;4970891;28;20192;-80
2021/09/12 01:54:29;;;;;;;0.20;0.10;;;17.50;99.90;;;;;;4983731;28;20188;-81
2021/09/12 01:56:55;;;;;;;0.20;0.20;;;17.30;99.90;;;;;;4971674;28;20185;-81
2021/09/12 01:59:20;;;;;;;0.40;0.33;;;17.40;99.90;;;;;;4972679;28;20204;-81
2021/09/12 02:01:46;;;;;;;0.10;0.10;;;17.30;99.90;;;;;;4974613;28;20200;-81
2021/09/12 02:04:12;;;;;;;0.40;0.40;;;17.40;99.90;;;;;;4974442;28;20599;-80
2021/09/12 02:06:37;;;;;;;0.43;0.43;;;17.40;99.90;;;;;;4962854;28;20686;-80
2021/09/12 02:09:03;;;;;;;0.47;0.40;;;17.50;99.90;;;;;;4960304;28;20204;-80
2021/09/12 02:11:29;;;;;;;0.23;0.23;;;17.30;99.90;;;;;;4974604;28;20177;-81
2021/09/12 02:13:54;;;;;;;0.20;0.20;;;17.30;99.90;;;;;;4965456;28;20177;-80
2021/09/12 02:16:21;;;;;;;0.23;0.20;;;17.40;99.90;;;;;;4969333;28;20184;-80
2021/09/12 02:18:47;;;;;;;0.20;0.20;;;17.40;99.90;;;;;;4974235;28;20215;-80
2021/09/12 02:21:12;;;;;;;0.70;0.57;;;17.50;99.90;;;;;;4968364;28;20186;-80
2021/09/12 02:23:38;;;;;;;0.30;0.30;;;17.50;99.90;;;;;;4960615;28;20185;-80
2021/09/12 02:26:04;;;;;;;0.37;0.37;;;17.50;99.90;;;;;;4970163;28;20778;-80
2021/09/12 02:28:30;;;;;;;0.30;0.30;;;17.50;99.90;;;;;;4973610;28;20268;-80
2021/09/12 02:30:55;;;;;;;0.30;0.30;;;17.50;99.90;;;;;;4966160;28;20191;-80
2021/09/12 02:33:21;;;;;;;1.00;0.27;;;17.50;99.90;;;;;;4968854;28;20212;-81
2021/09/12 02:35:46;;;;;;;0.37;0.30;;;17.50;99.90;;;;;;4959191;28;20207;-80
2021/09/12 02:38:12;;;;;;;0.30;0.30;;;17.40;99.90;;;;;;4957343;28;20185;-81
2021/09/12 02:40:39;;;;;;;0.53;0.53;;;17.40;99.90;;;;;;4968912;28;20203;-80
2021/09/12 02:43:06;;;;;;;0.60;0.37;;;17.40;99.90;;;;;;4968758;28;20183;-80
2021/09/12 02:45:32;;;;;;;0.20;0.20;;;17.30;99.90;;;;;;4972689;28;20188;-81
2021/09/12 02:47:58;;;;;;;0.67;0.63;;;17.30;99.90;;;;;;4972874;28;20242;-80
2021/09/12 02:50:23;;;;;;;0.63;0.63;;;17.20;99.90;;;;;;4973705;28;20688;-80
2021/09/12 02:52:49;;;;;;;0.10;0.10;;;17.10;99.90;;;;;;4964061;28;20181;-81
2021/09/12 02:55:15;;;;;;;0.37;0.30;;;17.10;99.90;;;;;;4960890;28;20192;-80
2021/09/12 02:57:40;;;;;;;0.63;0.30;;;17.10;99.90;;;;;;4960590;28;20191;-80
2021/09/12 03:00:07;;;;;;;0.50;0.50;;;17.10;99.90;;;;;;4971026;28;20200;-80
2021/09/12 03:02:33;;;;;;;0.30;0.30;;;17.00;99.90;;;;;;4970595;28;20217;-80
2021/09/12 03:04:58;;;;;;;0.37;0.37;;;16.90;99.90;;;;;;4958494;28;20212;-80
2021/09/12 03:07:24;;;;;;;0.20;0.20;;;16.90;99.90;;;;;;4957951;28;20201;-80
2021/09/12 03:09:49;;;;;;;0.30;0.30;;;16.80;99.90;;;;;;4966290;28;20580;-80
2021/09/12 03:12:15;;;;;;;0.10;0.10;;;16.80;99.90;;;;;;4968197;28;20549;-80
2021/09/12 03:14:41;;;;;;;0.80;0.30;;;16.80;99.90;;;;;;4972111;28;20208;-81
2021/09/12 03:17:06;;;;;;;0.13;0.13;;;16.80;99.90;;;;;;4961128;28;20231;-80
2021/09/12 03:19:32;;;;;;;0.37;0.30;;;16.90;99.90;;;;;;4964023;28;20220;-80
2021/09/12 03:21:58;;;;;;;0.20;0.20;;;16.80;99.90;;;;;;4964236;28;20192;-80
2021/09/12 03:24:23;;;;;;;0.20;0.20;;;16.80;99.90;;;;;;4962796;28;20180;-80
2021/09/12 03:26:49;;;;;;;0.40;0.30;;;16.70;99.90;;;;;;4962154;28;20692;-80
2021/09/12 03:29:14;;;;;;;0.30;0.30;;;16.50;99.90;;;;;;4971188;28;20581;-80
2021/09/12 03:31:40;;;;;;;0.17;0.17;;;16.50;99.90;;;;;;4959052;28;20191;-80
2021/09/12 03:34:05;;;;;;;0.23;0.23;;;16.40;99.90;;;;;;4971845;28;20271;-80
2021/09/12 03:36:31;;;;;;;0.30;0.30;;;16.30;99.90;;;;;;4973194;28;20268;-80
2021/09/12 03:38:57;;;;;;;0.27;0.27;;;16.20;99.90;;;;;;4972604;28;20204;-80
2021/09/12 03:41:22;;;;;;;0.40;0.40;;;16.10;99.90;;;;;;4971038;28;20191;-80
2021/09/12 03:43:48;;;;;;;0.23;0.23;;;16.10;99.90;;;;;;4965778;28;20691;-80
2021/09/12 03:46:14;;;;;;;0.27;0.20;;;16.10;99.90;;;;;;4971962;28;20207;-80
2021/09/12 03:48:40;;;;;;;0.47;0.47;;;16.00;99.90;;;;;;4966022;28;20274;-80
2021/09/12 03:51:05;;;;;;;0.13;0.13;;;16.00;99.90;;;;;;4961193;28;20179;-80
2021/09/12 03:53:31;;;;;;;0.10;0.10;;;16.00;99.90;;;;;;4964049;28;20183;-80
2021/09/12 03:55:56;;;;;;;0.37;0.20;;;15.90;99.90;;;;;;4967168;28;20184;-80
2021/09/12 03:58:22;;;;;;;0.30;0.30;;;15.90;99.90;;;;;;4963324;28;20214;-80
2021/09/12 04:00:47;;;;;;;0.20;0.20;;;15.90;99.90;;;;;;4971561;28;20661;-80
2021/09/12 04:03:14;;;;;;;0.57;0.23;;;15.90;99.90;;;;;;4971574;28;20652;-80
2021/09/12 04:05:40;;;;;;;0.20;0.20;;;15.90;99.90;;;;;;4969964;28;20192;-80
2021/09/12 04:08:05;;;;;;;0.20;0.20;;;15.90;99.90;;;;;;4957724;28;20187;-80
2021/09/12 04:10:31;;;;;;;0.30;0.30;;;16.00;99.90;;;;;;4968092;28;20203;-80
2021/09/12 04:12:57;;;;;;;0.40;0.40;;;15.90;99.90;;;;;;4971522;28;20533;-80
2021/09/12 04:15:23;;;;;;;0.30;0.30;;;15.80;99.90;;;;;;4971005;28;20655;-80
2021/09/12 04:17:49;;;;;;;0.10;0.10;;;15.80;99.90;;;;;;4956842;28;20216;-80
2021/09/12 04:20:14;;;;;;;0.10;0.10;;;15.70;99.90;;;;;;4960051;28;20206;-80
2021/09/12 04:22:40;;;;;;;0.17;0.17;;;15.70;99.90;;;;;;4971658;28;20192;-80
2021/09/12 04:25:07;;;;;;;0.30;0.30;;;15.70;99.90;;;;;;4971282;28;20283;-80
2021/09/12 04:27:32;;;;;;;0.20;0.20;;;15.60;99.90;;;;;;4958615;28;20208;-80
2021/09/12 04:29:58;;;;;;;0.17;0.17;;;15.60;99.90;;;;;;4968930;28;20200;-80
2021/09/12 04:32:25;;;;;;;0.10;0.10;;;15.50;99.90;;;;;;4969115;28;20303;-80
2021/09/12 04:34:50;;;;;;;0.20;0.20;;;15.60;99.90;;;;;;4963553;28;20279;-80
2021/09/12 04:37:16;;;;;;;0.30;0.30;;;15.50;99.90;;;;;;4972110;28;20261;-81
2021/09/12 04:39:42;;;;;;;0.10;0.10;;;15.50;99.90;;;;;;4976148;28;20234;-80
2021/09/12 04:42:07;;;;;;;0.10;0.10;;;15.40;99.90;;;;;;4968346;28;20198;-80
2021/09/12 04:44:33;;;;;;;0.30;0.30;;;15.40;99.90;;;;;;4970795;28;20198;-81
2021/09/12 04:46:58;;;;;;;0.60;0.60;;;15.40;99.90;;;;;;4974018;28;20217;-81
2021/09/12 04:49:24;;;;;;;0.43;0.40;;;15.40;99.90;;;;;;4962672;28;20227;-81
2021/09/12 04:51:50;;;;;;;0.20;0.20;;;15.40;99.90;;;;;;4972648;28;20268;-81
2021/09/12 04:54:16;;;;;;;0.17;0.17;;;15.40;99.90;;;;;;4967744;28;20715;-81
2021/09/12 04:56:41;;;;;;;0.10;0.10;;;15.40;99.90;;;;;;4974955;28;20196;-81
2021/09/12 04:59:07;;;;;;;0.23;0.20;;;15.40;99.90;;;;;;4975540;28;20211;-81
2021/09/12 05:01:32;;;;;;;0.10;0.10;;;15.40;99.90;;;;;;4974090;28;20210;-81
2021/09/12 05:03:59;;;;;;;0.27;0.27;;;15.30;99.90;;;;;;4970170;28;20579;-81
2021/09/12 05:06:25;;;;;;;0.30;0.30;;;15.30;99.90;;;;;;4966183;28;20294;-81
2021/09/12 05:08:51;;;;;;;0.10;0.10;;;15.30;99.90;;;;;;4965674;28;20679;-81
2021/09/12 05:11:16;;;;;;;0.37;0.37;;;15.40;99.90;;;;;;4971224;28;20651;-81
2021/09/12 05:13:42;;;;;;;0.10;0.10;;;15.40;99.90;;;;;;4968407;28;20214;-80
2021/09/12 05:16:07;;;;;;;0.10;0.10;;;15.40;99.90;;;;;;4967766;28;20266;-81
2021/09/12 05:18:33;;;;;;;0.30;0.30;;;15.40;99.90;;;;;;4972675;28;20678;-81
2021/09/12 05:20:59;;;;;;;0.13;0.13;;;15.50;99.90;;;;;;4974166;28;20206;-81
2021/09/12 05:23:24;;;;;;;0.20;0.20;;;15.40;99.90;;;;;;4967622;28;20205;-81
2021/09/12 05:25:50;;;;;;;0.30;0.27;;;15.40;99.90;;;;;;4973742;28;20679;-82
2021/09/12 05:28:17;;;;;;;0.20;0.20;;;15.40;99.90;;;;;;4969645;28;20219;-81
2021/09/12 05:30:43;;;;;;;0.60;0.60;;;15.50;99.90;;;;;;4966536;28;20206;-82
2021/09/12 05:33:08;;;;;;;0.17;0.17;;;15.50;99.90;;;;;;4968492;28;20194;-82
2021/09/12 05:35:34;;;;;;;0.07;0.07;;;15.50;99.90;;;;;;4976546;28;20186;-81
2021/09/12 05:38:00;;;;;;;0.40;0.40;;;15.50;99.90;;;;;;4972228;28;20190;-81
2021/09/12 05:40:25;;;;;;;0.40;0.40;;;15.60;99.90;;;;;;4963971;28;20262;-81
2021/09/12 05:42:51;;;;;;;0.20;0.20;;;15.60;99.90;;;;;;4964686;28;20782;-81
2021/09/12 05:45:16;;;;;;;0.30;0.30;;;15.70;99.90;;;;;;4965385;28;20238;-81
2021/09/12 05:47:42;;;;;;;0.40;0.10;;;15.70;99.90;;;;;;4968390;28;20217;-81
2021/09/12 05:50:08;;;;;;;0.20;0.20;;;15.70;99.90;;;;;;4968264;28;20243;-81
2021/09/12 05:52:34;;;;;;;0.80;0.20;;;15.70;99.90;;;;;;4971169;28;20190;-80
2021/09/12 05:55:00;;;;;;;0.20;0.20;;;15.70;99.90;;;;;;4968284;28;20187;-80
2021/09/12 05:57:26;;;;;;;0.47;0.40;;;15.80;99.90;;;;;;4962140;28;20187;-81
2021/09/12 05:59:52;;;;;;;0.40;0.40;;;15.70;99.90;;;;;;4970287;28;20207;-81
2021/09/12 06:02:17;;;;;;;0.17;0.17;;;15.70;99.90;;;;;;4969559;28;20186;-81
2021/09/12 06:04:43;;;;;;;0.20;0.20;;;15.80;99.90;;;;;;4961387;28;20233;-81
2021/09/12 06:07:09;;;;;;;6.97;0.73;;;15.80;99.90;;;;;;4973853;28;20212;-81
2021/09/12 06:09:35;;;;;;;0.20;0.20;;;15.90;99.90;;;;;;4961166;28;20205;-81
2021/09/12 06:12:01;;;;;;;0.37;0.37;;;15.90;99.90;;;;;;4970010;28;20186;-80
2021/09/12 06:14:26;;;;;;;0.30;0.30;;;16.00;99.90;;;;;;4965969;28;20185;-81
2021/09/12 06:16:52;;;;;;;0.50;0.50;;;16.10;99.90;;;;;;4973573;28;20700;-81
2021/09/12 06:19:18;;;;;;;0.20;0.20;;;16.10;99.90;;;;;;4965250;28;20233;-81
2021/09/12 06:21:43;;;;;;;0.87;0.50;;;16.30;99.90;;;;;;4971107;28;20274;-80
2021/09/12 06:24:09;;;;;;;0.10;0.10;;;16.40;99.90;;;;;;4974336;28;20767;-81
2021/09/12 06:26:34;;;;;;;0.50;0.37;;;16.50;99.90;;;;;;4962299;28;20234;-81
2021/09/12 06:29:00;;;;;;;0.20;0.20;;;16.70;99.90;;;;;;4968446;28;20282;-81
2021/09/12 06:31:27;;;;;;;0.30;0.30;;;16.90;99.90;;;;;;4961512;28;20215;-81
2021/09/12 06:33:52;;;;;;;0.50;0.50;;;17.00;99.90;;;;;;4972682;28;20211;-81
2021/09/12 06:36:18;;;;;;;0.30;0.30;;;17.10;99.90;;;;;;4970641;28;20195;-81
2021/09/12 06:38:45;;;;;;;0.20;0.20;;;17.30;99.90;;;;;;4965841;28;20571;-81
2021/09/12 06:41:10;;;;;;;1.20;1.20;;;17.60;99.90;;;;;;4965004;28;20204;-81
2021/09/12 06:43:36;;;;;;;0.47;0.27;;;17.80;99.90;;;;;;4963408;28;20189;-82
2021/09/12 06:46:02;;;;;;;0.10;0.10;;;17.90;99.90;;;;;;4967796;28;20307;-81
2021/09/12 06:48:28;;;;;;;0.23;0.23;;;18.00;99.90;;;;;;4970663;28;20267;-81
2021/09/12 06:50:53;;;;;;;0.20;0.20;;;18.10;99.90;;;;;;4966365;28;20192;-82
2021/09/12 06:53:20;;;;;;;0.50;0.50;;;18.20;99.90;;;;;;4973006;28;20713;-80
2021/09/12 06:55:45;;;;;;;0.30;0.30;;;18.40;99.90;;;;;;4968604;28;20188;-81
2021/09/12 06:58:11;;;;;;;0.77;0.77;;;18.60;99.90;;;;;;4972752;28;20176;-81
2021/09/12 07:00:37;;;;;;;0.23;0.23;;;18.80;99.90;;;;;;4961636;28;20318;-81
2021/09/12 07:03:03;;;;;;;0.20;0.20;;;18.90;99.90;;;;;;4957906;28;20210;-81
2021/09/12 07:05:29;;;;;;;0.20;0.20;;;19.10;99.90;;;;;;4965368;28;20693;-82
2021/09/12 07:07:55;;;;;;;0.93;0.40;;;19.00;99.90;;;;;;4964792;28;20204;-82
2021/09/12 07:10:21;;;;;;;0.77;0.20;;;19.00;99.90;;;;;;4968717;28;20204;-81
2021/09/12 07:12:46;;;;;;;0.20;0.20;;;19.10;99.90;;;;;;4967464;28;20615;-81
2021/09/12 07:15:12;;;;;;;0.37;0.37;;;19.10;99.90;;;;;;4970413;28;20689;-81
2021/09/12 07:17:38;;;;;;;0.23;0.23;;;19.20;99.90;;;;;;4974419;28;20181;-81
2021/09/12 07:20:04;;;;;;;0.27;0.27;;;19.20;99.90;;;;;;4974822;28;20209;-81
2021/09/12 07:22:30;;;;;;;0.63;0.37;;;19.30;99.90;;;;;;4974506;28;20188;-80
2021/09/12 07:24:55;;;;;;;0.20;0.20;;;19.40;99.90;;;;;;4971068;28;20185;-80
2021/09/12 07:27:21;;;;;;;0.20;0.20;;;19.50;99.90;;;;;;4966549;28;20222;-80
2021/09/12 07:29:46;;;;;;;0.27;0.27;;;19.50;99.90;;;;;;4970343;28;20262;-81
2021/09/12 07:32:12;;;;;;;0.30;0.30;;;19.40;99.90;;;;;;4968629;28;20763;-80
2021/09/12 07:34:38;;;;;;;0.47;0.47;;;19.30;99.90;;;;;;4969415;28;20184;-80
2021/09/12 07:37:04;;;;;;;0.63;0.30;;;19.20;99.90;;;;;;4962967;28;20243;-80
2021/09/12 07:39:29;;;;;;;0.43;0.43;;;19.20;99.90;;;;;;4971455;28;20216;-80
2021/09/12 07:41:55;;;;;;;0.60;0.60;;;19.10;99.90;;;;;;4965171;28;20193;-81
2021/09/12 07:44:20;;;;;;;0.40;0.30;;;19.20;99.90;;;;;;4970726;28;20196;-80
2021/09/12 07:46:46;;;;;;;0.30;0.30;;;19.30;99.90;;;;;;4972541;28;20218;-81
2021/09/12 07:49:11;;;;;;;0.50;0.50;;;19.40;99.90;;;;;;4968591;28;20243;-80
2021/09/12 07:51:37;;;;;;;0.30;0.30;;;19.40;99.90;;;;;;4963605;28;20178;-81
2021/09/12 07:54:03;;;;;;;1.10;0.43;;;19.50;99.90;;;;;;4964626;28;20243;-82
2021/09/12 07:56:28;;;;;;;0.47;0.47;;;19.60;99.90;;;;;;4969862;28;20194;-82
2021/09/12 07:58:54;;;;;;;0.90;0.47;;;19.70;99.90;;;;;;4970716;28;20212;-82
2021/09/12 08:01:19;;;;;;;0.33;0.33;;;19.50;99.90;;;;;;4970254;28;20616;-82
2021/09/12 08:03:45;;;;;;;0.70;0.70;;;19.70;99.90;;;;;;4971344;28;20283;-82
2021/09/12 08:06:11;;;;;;;1.50;0.47;;;19.70;99.90;;;;;;4962786;28;20213;-82
2021/09/12 08:08:36;;;;;;;0.30;0.30;;;20.00;99.90;;;;;;4971101;28;20187;-82
2021/09/12 08:11:02;;;;;;;0.40;0.40;;;20.00;99.90;;;;;;4967076;28;20621;-82
2021/09/12 08:13:27;;;;;;;0.27;0.27;;;20.00;99.90;;;;;;4970359;28;20182;-82
2021/09/12 08:15:53;;;;;;;0.47;0.40;;;19.80;99.90;;;;;;4972066;28;20653;-82
2021/09/12 08:18:19;;;;;;;0.30;0.30;;;19.80;99.90;;;;;;4973703;28;20176;-82
2021/09/12 08:20:46;;;;;;;0.70;0.70;;;19.80;99.90;;;;;;4975201;28;20669;-82
2021/09/12 08:23:12;;;;;;;0.30;0.30;;;19.80;99.90;;;;;;4973447;28;20188;-80
2021/09/12 08:25:38;;;;;;;0.20;0.20;;;19.80;99.90;;;;;;4974915;28;20200;-80
2021/09/12 08:28:04;;;;;;;0.60;0.60;;;19.70;99.90;;;;;;4973310;28;20215;-81
2021/09/12 08:30:29;;;;;;;0.30;0.20;;;19.80;99.90;;;;;;4971488;28;20205;-81
2021/09/12 08:32:55;;;;;;;0.43;0.43;;;20.10;99.90;;;;;;4973941;28;20189;-80
2021/09/12 08:35:21;;;;;;;0.50;0.50;;;20.30;99.90;;;;;;4970988;28;20186;-81
2021/09/12 08:37:47;;;;;;;0.10;0.10;;;20.60;99.90;;;;;;4968738;28;20226;-81
2021/09/12 08:40:13;;;;;;;0.30;0.30;;;20.90;99.90;;;;;;4974579;28;20677;-80
2021/09/12 08:42:42;;;;;;;0.20;0.20;;;21.10;99.90;;;;;;4974277;28;20189;-81
2021/09/12 08:45:08;;;;;;;0.20;0.20;;;21.30;99.90;;;;;;4967737;28;20231;-81
2021/09/12 08:47:35;;;;;;;0.23;0.23;;;21.60;99.90;;;;;;4964369;28;20299;-81
2021/09/12 08:50:00;;;;;;;0.10;0.10;;;21.80;99.90;;;;;;4972400;28;20220;-81
2021/09/12 08:52:26;;;;;;;0.10;0.10;;;22.00;99.90;;;;;;4975201;28;20184;-81
2021/09/12 08:54:52;;;;;;;1.00;0.33;;;22.20;99.90;;;;;;4967820;28;20196;-81
2021/09/12 08:57:17;;;;;;;0.20;0.20;;;22.40;99.90;;;;;;4973660;28;20196;-81
2021/09/12 08:59:50;;;;;;;0.33;0.33;;;22.60;99.90;;;;;;4974028;28;20246;-81
2021/09/12 09:02:16;;;;;;;0.23;0.23;;;22.80;99.90;;;;;;4964728;28;20192;-81
2021/09/12 09:04:42;;;;;;;1.73;0.90;;;22.90;99.90;;;;;;4965259;28;20230;-81
2021/09/12 09:07:10;;;;;;;0.27;0.27;;;22.90;99.90;;;;;;4975267;28;20244;-81
2021/09/12 09:09:47;;;;;;;0.53;0.40;;;23.00;99.90;;;;;;4973231;28;20204;-81
2021/09/12 09:12:29;;;;;;;0.23;0.23;;;23.20;99.90;;;;;;4974861;28;20215;-82
2021/09/12 09:15:00;;;;;;;1.60;0.40;;;23.30;99.90;;;;;;4966569;28;20652;-82
2021/09/12 09:17:26;;;;;;;0.30;0.30;;;23.40;99.90;;;;;;4967651;28;20206;-81
2021/09/12 09:19:53;;;;;;;0.20;0.20;;;23.50;99.90;;;;;;4963422;28;20666;-82
2021/09/12 09:22:32;;;;;;;0.30;0.30;;;23.50;99.90;;;;;;4969453;28;20180;-82
2021/09/12 09:25:12;;;;;;;0.50;0.30;;;23.30;99.90;;;;;;4971060;28;20565;-81
2021/09/12 09:28:00;;;;;;;0.30;0.30;;;23.50;99.90;;;;;;4972584;28;20624;-81
2021/09/12 09:30:28;;;;;;;0.30;0.20;;;23.50;99.90;;;;;;4969174;28;20288;-81
2021/09/12 09:33:10;;;;;;;0.30;0.23;;;23.70;99.90;;;;;;4975300;28;20189;-82
2021/09/12 09:35:36;;;;;;;0.27;0.27;;;23.80;99.90;;;;;;4973266;28;20181;-81
2021/09/12 09:38:01;;;;;;;0.53;0.37;;;24.10;99.90;;;;;;4972593;28;20195;-81
2021/09/12 09:40:27;;;;;;;2.53;0.40;;;23.60;99.90;;;;;;4973317;28;20200;-81
2021/09/12 09:42:52;;;;;;;0.40;0.40;;;23.40;99.90;;;;;;4974533;28;20846;-81
2021/09/12 09:45:20;;;;;;;0.30;0.30;;;23.00;99.90;;;;;;4964631;28;20786;-82
2021/09/12 09:47:48;;;;;;;0.20;0.20;;;22.90;99.90;;;;;;4970558;28;20206;-82
2021/09/12 09:50:24;;;;;;;0.30;0.30;;;22.70;99.90;;;;;;4968251;28;20235;-81
2021/09/12 09:52:52;;;;;;;0.20;0.20;;;22.50;99.90;;;;;;4971121;28;20180;-81
2021/09/12 09:55:21;;;;;;;3.33;0.20;;;22.60;99.90;;;;;;4970058;28;20191;-81
2021/09/12 09:57:49;;;;;;;0.20;0.20;;;22.50;99.90;;;;;;4971903;28;20214;-82
2021/09/12 10:00:15;;;;;;;0.20;0.20;;;23.00;99.90;;;;;;4972159;28;20629;-81
2021/09/12 10:02:41;;;;;;;0.17;0.17;;;23.50;99.90;;;;;;4966970;28;20573;-81
2021/09/12 10:05:09;;;;;;;0.10;0.10;;;23.60;99.90;;;;;;4972793;28;20188;-81
2021/09/12 10:07:36;;;;;;;0.30;0.30;;;24.00;99.90;;;;;;4969335;28;20215;-81
2021/09/12 10:10:08;;;;;;;0.20;0.20;;;24.00;99.90;;;;;;4964392;28;20195;-81
2021/09/12 10:12:45;;;;;;;0.27;0.27;;;23.90;99.90;;;;;;4970399;28;20177;-81
2021/09/12 10:15:15;;;;;;;0.20;0.20;;;24.20;99.90;;;;;;4969531;28;20177;-81
2021/09/12 10:17:44;;;;;;;0.20;0.20;;;24.00;99.90;;;;;;4973642;28;20185;-81
2021/09/12 10:20:10;;;;;;;0.37;0.37;;;24.20;99.90;;;;;;4971377;28;20201;-81
2021/09/12 10:23:00;;;;;;;0.50;0.43;;;24.40;99.90;;;;;;4972990;28;20191;-83
2021/09/12 10:25:30;;;;;;;0.20;0.20;;;24.70;99.90;;;;;;4970192;28;20200;-81
2021/09/12 10:28:07;;;;;;;0.20;0.20;;;24.70;99.90;;;;;;4972020;28;20581;-82
2021/09/12 10:30:37;;;;;;;0.10;0.10;;;24.70;99.90;;;;;;4970968;28;20502;-82
2021/09/12 10:33:11;;;;;;;0.67;0.37;;;25.10;99.90;;;;;;4967824;28;20188;-82
2021/09/12 10:35:48;;;;;;;0.50;0.50;;;25.10;99.90;;;;;;4968165;28;20188;-81
2021/09/12 10:38:32;;;;;;;0.20;0.20;;;24.90;99.90;;;;;;4970736;28;20190;-81
2021/09/12 10:41:03;;;;;;;0.30;0.30;;;25.00;99.90;;;;;;4972188;28;20570;-81
2021/09/12 10:43:30;;;;;;;0.40;0.40;;;25.10;99.90;;;;;;4971796;28;20239;-81
2021/09/12 10:46:02;;;;;;;0.50;0.20;;;25.00;99.90;;;;;;4963523;28;20220;-82
2021/09/12 10:48:30;;;;;;;0.27;0.27;;;25.20;99.90;;;;;;4963786;28;20199;-82
2021/09/12 10:50:58;;;;;;;0.53;0.30;;;25.40;99.90;;;;;;4958763;28;20181;-82
2021/09/12 10:53:43;;;;;;;0.23;0.23;;;25.40;99.90;;;;;;4967119;28;20187;-82
2021/09/12 10:56:31;;;;;;;0.40;0.40;;;25.50;99.90;;;;;;4966711;28;20615;-82
2021/09/12 10:59:02;;;;;;;0.20;0.20;;;25.60;99.90;;;;;;4964317;28;20200;-82
2021/09/12 11:01:34;;;;;;;0.30;0.30;;;25.40;99.90;;;;;;4962594;28;20184;-82
2021/09/12 11:04:01;;;;;;;0.20;0.20;;;25.40;99.90;;;;;;4965952;28;20188;-82
2021/09/12 11:06:28;;;;;;;0.40;0.40;;;25.70;99.90;;;;;;4970372;28;20688;-82
2021/09/12 11:08:54;;;;;;;0.10;0.10;;;25.70;99.90;;;;;;4969577;28;20244;-81
2021/09/12 11:11:21;;;;;;;0.73;0.10;;;25.70;99.90;;;;;;4968220;28;20203;-82
2021/09/12 11:13:47;;;;;;;0.20;0.20;;;25.80;99.90;;;;;;4972121;28;20187;-82
2021/09/12 11:16:18;;;;;;;1.53;0.40;;;25.90;99.90;;;;;;4970046;28;20562;-82
2021/09/12 11:18:59;;;;;;;0.30;0.30;;;25.80;99.90;;;;;;4965212;28;20212;-81
2021/09/12 11:21:32;;;;;;;0.67;0.67;;;25.60;99.90;;;;;;4965798;28;20184;-82
2021/09/12 11:24:05;;;;;;;0.47;0.47;;;25.40;99.90;;;;;;4968299;28;20180;-82
2021/09/12 11:26:37;;;;;;;0.30;0.30;;;25.50;99.90;;;;;;4971176;28;20231;-81
2021/09/12 11:29:20;;;;;;;0.40;0.37;;;25.50;99.90;;;;;;4965540;28;20204;-82
2021/09/12 11:31:48;;;;;;;0.63;0.30;;;25.40;99.90;;;;;;4971125;28;20232;-81
2021/09/12 11:34:16;;;;;;;0.93;0.40;;;25.10;99.90;;;;;;4966393;28;20244;-82
2021/09/12 11:36:59;;;;;;;1.33;0.70;;;25.20;99.90;;;;;;4967536;28;20194;-81
2021/09/12 11:39:31;;;;;;;0.10;0.10;;;25.20;99.90;;;;;;4964465;28;20303;-81
2021/09/12 11:41:59;;;;;;;0.20;0.20;;;25.20;99.90;;;;;;4964799;28;20213;-81
2021/09/12 11:44:33;;;;;;;0.33;0.33;;;25.40;99.90;;;;;;4974363;28;20220;-82
2021/09/12 11:47:00;;;;;;;0.20;0.20;;;25.40;99.90;;;;;;4984782;28;20199;-82
2021/09/12 11:49:26;;;;;;;0.30;0.30;;;25.70;99.90;;;;;;4969258;28;20221;-82
2021/09/12 11:51:52;;;;;;;1.03;0.40;;;25.70;99.90;;;;;;4973177;28;20203;-83
2021/09/12 11:54:17;;;;;;;1.27;0.30;;;25.30;99.90;;;;;;4969554;28;20670;-82
2021/09/12 11:56:52;;;;;;;0.30;0.30;;;25.10;99.90;;;;;;4970445;28;20181;-82
2021/09/12 11:59:17;;;;;;;0.50;0.50;;;25.30;99.90;;;;;;4968643;28;20698;-82
2021/09/12 12:01:43;;;;;;;0.50;0.47;;;25.30;99.90;;;;;;4967857;28;20205;-81
2021/09/12 12:04:10;;;;;;;0.30;0.30;;;25.30;99.90;;;;;;4969142;28;20211;-81
2021/09/12 12:06:36;;;;;;;0.20;0.20;;;25.40;99.90;;;;;;4973141;28;20240;-82
2021/09/12 12:09:07;;;;;;;0.43;0.40;;;25.60;99.90;;;;;;4975558;28;20223;-82
2021/09/12 12:11:34;;;;;;;0.10;0.10;;;25.70;99.90;;;;;;4974344;28;20184;-81
2021/09/12 12:14:02;;;;;;;0.20;0.20;;;25.70;99.90;;;;;;4969617;28;20230;-81
2021/09/12 12:16:27;;;;;;;1.93;0.60;;;25.70;99.90;;;;;;4968653;28;20316;-82
2021/09/12 12:19:07;;;;;;;0.17;0.17;;;25.40;99.90;;;;;;4973061;28;20283;-82
2021/09/12 12:21:34;;;;;;;0.23;0.23;;;25.40;99.90;;;;;;4976228;28;20175;-81
2021/09/12 12:24:21;;;;;;;0.30;0.30;;;25.40;99.90;;;;;;4973743;28;20650;-81
2021/09/12 12:26:52;;;;;;;0.20;0.20;;;25.40;99.90;;;;;;4968624;28;20583;-81
2021/09/12 12:29:29;;;;;;;0.20;0.20;;;25.60;99.90;;;;;;4974288;28;20250;-82
2021/09/12 12:31:58;;;;;;;0.30;0.30;;;25.80;99.90;;;;;;4971682;28;20250;-82
2021/09/12 12:34:50;;;;;;;0.20;0.20;;;25.80;99.90;;;;;;4973890;28;20195;-81
2021/09/12 12:37:18;;;;;;;0.23;0.10;;;25.80;99.90;;;;;;4964619;28;20187;-81
2021/09/12 12:39:54;;;;;;;0.20;0.20;;;26.00;99.90;;;;;;4969054;28;20526;-82
2021/09/12 12:42:36;;;;;;;0.37;0.30;;;26.00;99.90;;;;;;4967046;28;20180;-81
2021/09/12 12:45:29;;;;;;;0.20;0.20;;;25.90;99.90;;;;;;4964685;28;20563;-81
2021/09/12 12:48:01;;;;;;;0.73;0.40;;;25.90;99.90;;;;;;4968605;28;20611;-82
2021/09/12 12:50:38;;;;;;;0.20;0.20;;;26.00;99.90;;;;;;4964634;28;20299;-81